sensor_id;sensor_type;location;lat;lon;timestamp;P1;durP1;ratioP1;P2;durP2;ratioP2
14052;SDS011;7101;51.600;7.310;2023-04-01T00:00:10;3.65;;;1.45;;
14052;SDS011;7101;51.600;7.310;2023-04-01T00:02:40;5.00;;;1.40;;
14052;SDS011;7101;51.600;7.310;2023-04-01T00:05:09;5.93;;;1.50;;
14052;SDS011;7101;51.600;7.310;2023-04-01T00:07:39;2.05;;;1.10;;
14052;SDS011;7101;51.600;7.310;2023-04-01T00:10:07;4.00;;;1.38;;
14052;SDS011;7101;51.600;7.310;2023-04-01T00:15:18;2.40;;;1.13;;
14052;SDS011;7101;51.600;7.310;2023-04-01T00:17:47;4.95;;;1.50;;
14052;SDS011;7101;51.600;7.310;2023-04-01T00:20:14;3.97;;;1.73;;
14052;SDS011;7101;51.600;7.310;2023-04-01T00:22:41;5.03;;;1.73;;
14052;SDS011;7101;51.600;7.310;2023-04-01T00:25:08;3.70;;;1.23;;
14052;SDS011;7101;51.600;7.310;2023-04-01T00:27:35;4.32;;;1.40;;
14052;SDS011;7101;51.600;7.310;2023-04-01T00:30:03;2.50;;;1.20;;
14052;SDS011;7101;51.600;7.310;2023-04-01T00:32:30;3.22;;;1.50;;
14052;SDS011;7101;51.600;7.310;2023-04-01T00:34:59;3.45;;;1.38;;
14052;SDS011;7101;51.600;7.310;2023-04-01T00:37:26;5.82;;;1.50;;
14052;SDS011;7101;51.600;7.310;2023-04-01T00:39:53;3.35;;;1.52;;
14052;SDS011;7101;51.600;7.310;2023-04-01T00:42:20;5.95;;;1.63;;
14052;SDS011;7101;51.600;7.310;2023-04-01T00:44:47;4.20;;;1.58;;
14052;SDS011;7101;51.600;7.310;2023-04-01T00:47:17;4.45;;;1.48;;
14052;SDS011;7101;51.600;7.310;2023-04-01T00:49:45;3.72;;;1.30;;
14052;SDS011;7101;51.600;7.310;2023-04-01T00:52:19;6.28;;;1.45;;
14052;SDS011;7101;51.600;7.310;2023-04-01T00:54:49;3.30;;;1.50;;
14052;SDS011;7101;51.600;7.310;2023-04-01T00:57:21;7.55;;;1.52;;
14052;SDS011;7101;51.600;7.310;2023-04-01T00:59:54;5.22;;;1.40;;
14052;SDS011;7101;51.600;7.310;2023-04-01T01:02:21;4.85;;;1.55;;
14052;SDS011;7101;51.600;7.310;2023-04-01T01:04:48;4.53;;;1.40;;
14052;SDS011;7101;51.600;7.310;2023-04-01T01:07:20;5.43;;;1.40;;
14052;SDS011;7101;51.600;7.310;2023-04-01T01:09:55;2.20;;;1.20;;
14052;SDS011;7101;51.600;7.310;2023-04-01T01:12:29;2.03;;;1.15;;
14052;SDS011;7101;51.600;7.310;2023-04-01T01:15:04;4.82;;;1.20;;
14052;SDS011;7101;51.600;7.310;2023-04-01T01:17:38;3.42;;;1.13;;
14052;SDS011;7101;51.600;7.310;2023-04-01T01:26:15;4.10;;;1.48;;
14052;SDS011;7101;51.600;7.310;2023-04-01T01:29:05;2.15;;;1.30;;
14052;SDS011;7101;51.600;7.310;2023-04-01T01:31:42;2.63;;;1.20;;
14052;SDS011;7101;51.600;7.310;2023-04-01T01:34:15;3.28;;;1.50;;
14052;SDS011;7101;51.600;7.310;2023-04-01T01:36:50;2.47;;;1.40;;
14052;SDS011;7101;51.600;7.310;2023-04-01T01:39:21;2.17;;;1.20;;
14052;SDS011;7101;51.600;7.310;2023-04-01T01:41:53;3.90;;;1.10;;
14052;SDS011;7101;51.600;7.310;2023-04-01T01:44:23;3.47;;;1.27;;
14052;SDS011;7101;51.600;7.310;2023-04-01T01:46:56;2.40;;;1.02;;
14052;SDS011;7101;51.600;7.310;2023-04-01T01:49:32;3.00;;;1.30;;
14052;SDS011;7101;51.600;7.310;2023-04-01T01:52:02;4.57;;;1.30;;
14052;SDS011;7101;51.600;7.310;2023-04-01T01:54:32;1.52;;;1.08;;
14052;SDS011;7101;51.600;7.310;2023-04-01T01:57:02;3.35;;;1.00;;
14052;SDS011;7101;51.600;7.310;2023-04-01T02:02:04;2.40;;;1.10;;
14052;SDS011;7101;51.600;7.310;2023-04-01T02:04:35;3.60;;;1.27;;
14052;SDS011;7101;51.600;7.310;2023-04-01T02:07:07;3.08;;;1.20;;
14052;SDS011;7101;51.600;7.310;2023-04-01T02:09:39;2.83;;;1.40;;
14052;SDS011;7101;51.600;7.310;2023-04-01T02:12:07;3.70;;;1.50;;
14052;SDS011;7101;51.600;7.310;2023-04-01T02:14:37;1.48;;;1.10;;
14052;SDS011;7101;51.600;7.310;2023-04-01T02:17:09;2.22;;;1.30;;
14052;SDS011;7101;51.600;7.310;2023-04-01T02:19:53;2.28;;;0.90;;
14052;SDS011;7101;51.600;7.310;2023-04-01T02:22:27;3.08;;;1.02;;
14052;SDS011;7101;51.600;7.310;2023-04-01T02:24:57;2.92;;;1.13;;
14052;SDS011;7101;51.600;7.310;2023-04-01T02:27:36;2.35;;;1.15;;
14052;SDS011;7101;51.600;7.310;2023-04-01T02:30:05;2.50;;;1.35;;
14052;SDS011;7101;51.600;7.310;2023-04-01T02:32:33;3.38;;;1.48;;
14052;SDS011;7101;51.600;7.310;2023-04-01T02:35:03;4.20;;;1.27;;
14052;SDS011;7101;51.600;7.310;2023-04-01T02:37:33;2.58;;;1.00;;
14052;SDS011;7101;51.600;7.310;2023-04-01T02:40:00;1.23;;;0.90;;
14052;SDS011;7101;51.600;7.310;2023-04-01T02:42:28;3.10;;;1.20;;
14052;SDS011;7101;51.600;7.310;2023-04-01T02:44:55;4.38;;;1.23;;
14052;SDS011;7101;51.600;7.310;2023-04-01T02:47:21;1.95;;;0.85;;
14052;SDS011;7101;51.600;7.310;2023-04-01T02:49:48;2.42;;;1.08;;
14052;SDS011;7101;51.600;7.310;2023-04-01T02:52:15;2.45;;;0.98;;
14052;SDS011;7101;51.600;7.310;2023-04-01T02:54:43;1.38;;;0.65;;
14052;SDS011;7101;51.600;7.310;2023-04-01T02:57:10;2.80;;;0.80;;
14052;SDS011;7101;51.600;7.310;2023-04-01T02:59:37;1.77;;;0.80;;
14052;SDS011;7101;51.600;7.310;2023-04-01T03:02:06;4.55;;;1.08;;
14052;SDS011;7101;51.600;7.310;2023-04-01T03:04:39;3.28;;;1.02;;
14052;SDS011;7101;51.600;7.310;2023-04-01T03:07:06;2.88;;;1.00;;
14052;SDS011;7101;51.600;7.310;2023-04-01T03:09:44;1.23;;;0.80;;
14052;SDS011;7101;51.600;7.310;2023-04-01T03:12:12;1.75;;;0.80;;
14052;SDS011;7101;51.600;7.310;2023-04-01T03:17:18;2.22;;;0.90;;
14052;SDS011;7101;51.600;7.310;2023-04-01T03:22:23;2.13;;;0.98;;
14052;SDS011;7101;51.600;7.310;2023-04-01T03:24:54;2.78;;;1.13;;
14052;SDS011;7101;51.600;7.310;2023-04-01T03:27:20;1.65;;;0.85;;
14052;SDS011;7101;51.600;7.310;2023-04-01T03:29:48;3.00;;;1.20;;
14052;SDS011;7101;51.600;7.310;2023-04-01T03:32:15;5.60;;;1.17;;
14052;SDS011;7101;51.600;7.310;2023-04-01T03:34:42;1.95;;;1.00;;
14052;SDS011;7101;51.600;7.310;2023-04-01T03:37:09;2.00;;;0.98;;
14052;SDS011;7101;51.600;7.310;2023-04-01T03:39:36;2.72;;;0.95;;
14052;SDS011;7101;51.600;7.310;2023-04-01T03:42:04;3.30;;;0.90;;
14052;SDS011;7101;51.600;7.310;2023-04-01T03:44:31;1.75;;;0.82;;
14052;SDS011;7101;51.600;7.310;2023-04-01T03:46:58;2.25;;;0.80;;
14052;SDS011;7101;51.600;7.310;2023-04-01T03:49:26;0.80;;;0.70;;
14052;SDS011;7101;51.600;7.310;2023-04-01T03:51:53;2.97;;;0.80;;
14052;SDS011;7101;51.600;7.310;2023-04-01T03:54:19;1.23;;;0.70;;
14052;SDS011;7101;51.600;7.310;2023-04-01T03:56:46;1.35;;;0.70;;
14052;SDS011;7101;51.600;7.310;2023-04-01T03:59:15;1.08;;;0.70;;
14052;SDS011;7101;51.600;7.310;2023-04-01T04:01:42;1.30;;;0.70;;
14052;SDS011;7101;51.600;7.310;2023-04-01T04:04:10;1.38;;;0.70;;
14052;SDS011;7101;51.600;7.310;2023-04-01T04:06:38;2.17;;;0.70;;
14052;SDS011;7101;51.600;7.310;2023-04-01T04:09:06;2.97;;;0.90;;
14052;SDS011;7101;51.600;7.310;2023-04-01T04:11:33;2.13;;;0.95;;
14052;SDS011;7101;51.600;7.310;2023-04-01T04:14:00;0.85;;;0.73;;
14052;SDS011;7101;51.600;7.310;2023-04-01T04:16:33;3.50;;;0.93;;
14052;SDS011;7101;51.600;7.310;2023-04-01T04:19:01;2.00;;;1.00;;
14052;SDS011;7101;51.600;7.310;2023-04-01T04:21:28;1.35;;;0.80;;
14052;SDS011;7101;51.600;7.310;2023-04-01T04:23:59;3.72;;;1.00;;
14052;SDS011;7101;51.600;7.310;2023-04-01T04:26:27;2.05;;;1.30;;
14052;SDS011;7101;51.600;7.310;2023-04-01T04:28:54;3.08;;;1.30;;
14052;SDS011;7101;51.600;7.310;2023-04-01T04:31:22;2.30;;;1.15;;
14052;SDS011;7101;51.600;7.310;2023-04-01T04:33:52;3.00;;;1.05;;
14052;SDS011;7101;51.600;7.310;2023-04-01T04:36:20;1.77;;;1.10;;
14052;SDS011;7101;51.600;7.310;2023-04-01T04:38:47;4.00;;;1.00;;
14052;SDS011;7101;51.600;7.310;2023-04-01T04:41:15;2.15;;;1.10;;
14052;SDS011;7101;51.600;7.310;2023-04-01T04:43:48;1.42;;;0.88;;
14052;SDS011;7101;51.600;7.310;2023-04-01T04:46:17;4.00;;;1.00;;
14052;SDS011;7101;51.600;7.310;2023-04-01T04:48:44;2.00;;;0.98;;
14052;SDS011;7101;51.600;7.310;2023-04-01T04:51:14;1.42;;;1.00;;
14052;SDS011;7101;51.600;7.310;2023-04-01T04:53:41;1.63;;;1.00;;
14052;SDS011;7101;51.600;7.310;2023-04-01T04:56:08;1.80;;;1.20;;
14052;SDS011;7101;51.600;7.310;2023-04-01T04:58:35;2.47;;;1.10;;
14052;SDS011;7101;51.600;7.310;2023-04-01T05:01:05;2.65;;;1.40;;
14052;SDS011;7101;51.600;7.310;2023-04-01T05:03:33;1.75;;;1.20;;
14052;SDS011;7101;51.600;7.310;2023-04-01T05:06:01;3.15;;;1.20;;
14052;SDS011;7101;51.600;7.310;2023-04-01T05:08:30;1.40;;;1.20;;
14052;SDS011;7101;51.600;7.310;2023-04-01T05:10:57;1.77;;;1.30;;
14052;SDS011;7101;51.600;7.310;2023-04-01T05:13:25;3.70;;;1.40;;
14052;SDS011;7101;51.600;7.310;2023-04-01T05:15:51;3.22;;;1.60;;
14052;SDS011;7101;51.600;7.310;2023-04-01T05:18:18;2.03;;;1.30;;
14052;SDS011;7101;51.600;7.310;2023-04-01T05:20:46;1.52;;;1.30;;
14052;SDS011;7101;51.600;7.310;2023-04-01T05:23:13;2.92;;;1.40;;
14052;SDS011;7101;51.600;7.310;2023-04-01T05:25:42;2.47;;;1.50;;
14052;SDS011;7101;51.600;7.310;2023-04-01T05:28:09;1.92;;;1.42;;
14052;SDS011;7101;51.600;7.310;2023-04-01T05:30:39;1.60;;;1.33;;
14052;SDS011;7101;51.600;7.310;2023-04-01T05:33:07;2.95;;;1.73;;
14052;SDS011;7101;51.600;7.310;2023-04-01T05:35:35;1.88;;;1.50;;
14052;SDS011;7101;51.600;7.310;2023-04-01T05:38:02;2.05;;;1.65;;
14052;SDS011;7101;51.600;7.310;2023-04-01T05:40:30;3.35;;;1.45;;
14052;SDS011;7101;51.600;7.310;2023-04-01T05:42:59;3.35;;;1.50;;
14052;SDS011;7101;51.600;7.310;2023-04-01T05:45:26;2.13;;;1.40;;
14052;SDS011;7101;51.600;7.310;2023-04-01T05:47:53;1.60;;;1.48;;
14052;SDS011;7101;51.600;7.310;2023-04-01T05:50:20;2.38;;;1.63;;
14052;SDS011;7101;51.600;7.310;2023-04-01T05:52:47;1.35;;;1.20;;
14052;SDS011;7101;51.600;7.310;2023-04-01T05:55:14;2.97;;;1.50;;
14052;SDS011;7101;51.600;7.310;2023-04-01T05:57:40;1.45;;;1.35;;
14052;SDS011;7101;51.600;7.310;2023-04-01T06:00:09;2.38;;;1.33;;
14052;SDS011;7101;51.600;7.310;2023-04-01T06:02:37;1.80;;;1.30;;
14052;SDS011;7101;51.600;7.310;2023-04-01T06:05:11;2.08;;;1.50;;
14052;SDS011;7101;51.600;7.310;2023-04-01T06:07:40;3.22;;;1.40;;
14052;SDS011;7101;51.600;7.310;2023-04-01T06:10:10;3.08;;;1.67;;
14052;SDS011;7101;51.600;7.310;2023-04-01T06:12:43;1.48;;;1.38;;
14052;SDS011;7101;51.600;7.310;2023-04-01T06:15:32;3.05;;;1.60;;
14052;SDS011;7101;51.600;7.310;2023-04-01T06:18:13;1.65;;;1.30;;
14052;SDS011;7101;51.600;7.310;2023-04-01T06:21:00;1.60;;;1.40;;
14052;SDS011;7101;51.600;7.310;2023-04-01T06:23:44;1.75;;;1.40;;
14052;SDS011;7101;51.600;7.310;2023-04-01T06:26:21;1.58;;;1.48;;
14052;SDS011;7101;51.600;7.310;2023-04-01T06:29:07;2.22;;;1.67;;
14052;SDS011;7101;51.600;7.310;2023-04-01T06:32:13;1.80;;;1.60;;
14052;SDS011;7101;51.600;7.310;2023-04-01T06:34:50;2.33;;;1.65;;
14052;SDS011;7101;51.600;7.310;2023-04-01T06:37:33;3.38;;;2.00;;
14052;SDS011;7101;51.600;7.310;2023-04-01T06:40:22;1.80;;;1.40;;
14052;SDS011;7101;51.600;7.310;2023-04-01T06:43:16;2.63;;;1.73;;
14052;SDS011;7101;51.600;7.310;2023-04-01T06:45:49;2.53;;;1.60;;
14052;SDS011;7101;51.600;7.310;2023-04-01T06:48:30;1.75;;;1.50;;
14052;SDS011;7101;51.600;7.310;2023-04-01T06:51:09;2.15;;;1.70;;
14052;SDS011;7101;51.600;7.310;2023-04-01T06:53:53;1.95;;;1.40;;
14052;SDS011;7101;51.600;7.310;2023-04-01T06:56:25;3.35;;;1.38;;
14052;SDS011;7101;51.600;7.310;2023-04-01T06:58:56;1.58;;;1.48;;
14052;SDS011;7101;51.600;7.310;2023-04-01T07:01:28;1.55;;;1.27;;
14052;SDS011;7101;51.600;7.310;2023-04-01T07:04:01;1.40;;;1.20;;
14052;SDS011;7101;51.600;7.310;2023-04-01T07:06:35;1.60;;;1.48;;
14052;SDS011;7101;51.600;7.310;2023-04-01T07:09:05;1.92;;;1.38;;
14052;SDS011;7101;51.600;7.310;2023-04-01T07:11:40;1.90;;;1.40;;
14052;SDS011;7101;51.600;7.310;2023-04-01T07:14:10;1.75;;;1.60;;
14052;SDS011;7101;51.600;7.310;2023-04-01T07:16:43;1.60;;;1.50;;
14052;SDS011;7101;51.600;7.310;2023-04-01T07:19:24;3.70;;;1.60;;
14052;SDS011;7101;51.600;7.310;2023-04-01T07:21:57;2.50;;;2.10;;
14052;SDS011;7101;51.600;7.310;2023-04-01T07:24:29;2.10;;;1.67;;
14052;SDS011;7101;51.600;7.310;2023-04-01T07:27:02;3.05;;;1.75;;
14052;SDS011;7101;51.600;7.310;2023-04-01T07:29:31;2.53;;;2.00;;
14052;SDS011;7101;51.600;7.310;2023-04-01T07:34:51;2.45;;;2.03;;
14052;SDS011;7101;51.600;7.310;2023-04-01T07:37:30;2.90;;;1.80;;
14052;SDS011;7101;51.600;7.310;2023-04-01T07:40:06;2.83;;;1.95;;
14052;SDS011;7101;51.600;7.310;2023-04-01T07:42:46;2.03;;;1.83;;
14052;SDS011;7101;51.600;7.310;2023-04-01T07:45:34;1.90;;;1.70;;
14052;SDS011;7101;51.600;7.310;2023-04-01T07:48:10;2.38;;;1.95;;
14052;SDS011;7101;51.600;7.310;2023-04-01T07:50:46;2.00;;;1.80;;
14052;SDS011;7101;51.600;7.310;2023-04-01T07:53:19;2.10;;;1.90;;
14052;SDS011;7101;51.600;7.310;2023-04-01T07:55:54;1.98;;;1.65;;
14052;SDS011;7101;51.600;7.310;2023-04-01T07:58:30;3.42;;;1.95;;
14052;SDS011;7101;51.600;7.310;2023-04-01T08:01:05;2.83;;;1.80;;
14052;SDS011;7101;51.600;7.310;2023-04-01T08:03:49;2.08;;;1.88;;
14052;SDS011;7101;51.600;7.310;2023-04-01T08:06:31;2.42;;;1.98;;
14052;SDS011;7101;51.600;7.310;2023-04-01T08:09:04;2.00;;;1.80;;
14052;SDS011;7101;51.600;7.310;2023-04-01T08:11:40;2.22;;;2.00;;
14052;SDS011;7101;51.600;7.310;2023-04-01T08:14:18;3.17;;;2.00;;
14052;SDS011;7101;51.600;7.310;2023-04-01T08:16:51;2.65;;;2.17;;
14052;SDS011;7101;51.600;7.310;2023-04-01T08:19:27;3.40;;;2.13;;
14052;SDS011;7101;51.600;7.310;2023-04-01T08:22:07;2.40;;;2.20;;
14052;SDS011;7101;51.600;7.310;2023-04-01T08:24:40;3.67;;;2.00;;
14052;SDS011;7101;51.600;7.310;2023-04-01T08:27:09;2.88;;;2.35;;
14052;SDS011;7101;51.600;7.310;2023-04-01T08:29:44;3.58;;;2.30;;
14052;SDS011;7101;51.600;7.310;2023-04-01T08:32:17;3.58;;;2.40;;
14052;SDS011;7101;51.600;7.310;2023-04-01T08:34:51;3.13;;;2.83;;
14052;SDS011;7101;51.600;7.310;2023-04-01T08:37:30;3.25;;;2.75;;
14052;SDS011;7101;51.600;7.310;2023-04-01T08:40:02;4.20;;;2.70;;
14052;SDS011;7101;51.600;7.310;2023-04-01T08:42:54;3.15;;;2.70;;
14052;SDS011;7101;51.600;7.310;2023-04-01T08:45:44;3.00;;;2.50;;
14052;SDS011;7101;51.600;7.310;2023-04-01T08:48:27;3.05;;;2.70;;
14052;SDS011;7101;51.600;7.310;2023-04-01T08:51:11;3.05;;;2.75;;
14052;SDS011;7101;51.600;7.310;2023-04-01T08:54:16;4.00;;;2.78;;
14052;SDS011;7101;51.600;7.310;2023-04-01T08:57:12;2.70;;;2.50;;
14052;SDS011;7101;51.600;7.310;2023-04-01T08:59:50;3.90;;;3.00;;
14052;SDS011;7101;51.600;7.310;2023-04-01T09:02:37;3.60;;;3.30;;
14052;SDS011;7101;51.600;7.310;2023-04-01T09:05:36;3.42;;;3.13;;
14052;SDS011;7101;51.600;7.310;2023-04-01T09:08:27;4.47;;;3.33;;
14052;SDS011;7101;51.600;7.310;2023-04-01T09:14:00;3.92;;;3.20;;
14052;SDS011;7101;51.600;7.310;2023-04-01T09:16:43;3.20;;;2.90;;
14052;SDS011;7101;51.600;7.310;2023-04-01T09:19:36;3.55;;;3.25;;
14052;SDS011;7101;51.600;7.310;2023-04-01T09:22:25;4.40;;;4.00;;
14052;SDS011;7101;51.600;7.310;2023-04-01T09:28:00;4.55;;;3.95;;
14052;SDS011;7101;51.600;7.310;2023-04-01T09:30:48;4.47;;;4.03;;
14052;SDS011;7101;51.600;7.310;2023-04-01T09:33:51;4.60;;;4.20;;
14052;SDS011;7101;51.600;7.310;2023-04-01T09:36:38;6.38;;;4.80;;
14052;SDS011;7101;51.600;7.310;2023-04-01T09:39:18;5.88;;;4.80;;
14052;SDS011;7101;51.600;7.310;2023-04-01T09:42:06;6.10;;;5.50;;
14052;SDS011;7101;51.600;7.310;2023-04-01T09:44:48;5.70;;;5.20;;
14052;SDS011;7101;51.600;7.310;2023-04-01T09:47:23;6.40;;;5.65;;
14052;SDS011;7101;51.600;7.310;2023-04-01T09:53:05;6.60;;;6.00;;
14052;SDS011;7101;51.600;7.310;2023-04-01T09:55:55;7.40;;;6.60;;
14052;SDS011;7101;51.600;7.310;2023-04-01T10:05:06;7.15;;;6.45;;
14052;SDS011;7101;51.600;7.310;2023-04-01T10:07:56;6.97;;;6.38;;
14052;SDS011;7101;51.600;7.310;2023-04-01T10:11:04;7.18;;;6.30;;
14052;SDS011;7101;51.600;7.310;2023-04-01T10:14:07;6.53;;;5.82;;
14052;SDS011;7101;51.600;7.310;2023-04-01T10:19:53;6.60;;;5.90;;
14052;SDS011;7101;51.600;7.310;2023-04-01T10:25:28;6.60;;;6.00;;
14052;SDS011;7101;51.600;7.310;2023-04-01T10:31:32;7.25;;;5.82;;
14052;SDS011;7101;51.600;7.310;2023-04-01T10:34:30;5.75;;;5.15;;
14052;SDS011;7101;51.600;7.310;2023-04-01T10:37:23;5.78;;;5.28;;
14052;SDS011;7101;51.600;7.310;2023-04-01T10:40:33;6.88;;;5.32;;
14052;SDS011;7101;51.600;7.310;2023-04-01T11:01:25;6.45;;;4.90;;
14052;SDS011;7101;51.600;7.310;2023-04-01T11:10:15;4.65;;;4.25;;
14052;SDS011;7101;51.600;7.310;2023-04-01T11:19:27;4.78;;;4.18;;
14052;SDS011;7101;51.600;7.310;2023-04-01T11:22:35;4.40;;;4.00;;
14052;SDS011;7101;51.600;7.310;2023-04-01T11:25:21;5.18;;;4.10;;
14052;SDS011;7101;51.600;7.310;2023-04-01T11:28:16;4.90;;;4.40;;
14052;SDS011;7101;51.600;7.310;2023-04-01T11:31:10;4.40;;;4.00;;
14052;SDS011;7101;51.600;7.310;2023-04-01T11:33:49;3.95;;;3.55;;
14052;SDS011;7101;51.600;7.310;2023-04-01T11:36:25;3.83;;;3.47;;
14052;SDS011;7101;51.600;7.310;2023-04-01T11:39:05;4.38;;;3.78;;
14052;SDS011;7101;51.600;7.310;2023-04-01T11:41:46;3.70;;;3.40;;
14052;SDS011;7101;51.600;7.310;2023-04-01T11:44:20;5.85;;;3.72;;
14052;SDS011;7101;51.600;7.310;2023-04-01T11:46:54;4.10;;;3.70;;
14052;SDS011;7101;51.600;7.310;2023-04-01T11:49:36;3.63;;;3.33;;
14052;SDS011;7101;51.600;7.310;2023-04-01T11:58:02;4.43;;;4.03;;
14052;SDS011;7101;51.600;7.310;2023-04-01T12:00:48;4.72;;;3.63;;
14052;SDS011;7101;51.600;7.310;2023-04-01T12:03:46;5.07;;;4.28;;
14052;SDS011;7101;51.600;7.310;2023-04-01T12:06:40;4.18;;;3.78;;
14052;SDS011;7101;51.600;7.310;2023-04-01T12:09:12;3.70;;;3.40;;
14052;SDS011;7101;51.600;7.310;2023-04-01T12:11:50;6.15;;;3.95;;
14052;SDS011;7101;51.600;7.310;2023-04-01T12:14:31;4.95;;;3.90;;
14052;SDS011;7101;51.600;7.310;2023-04-01T12:17:09;4.82;;;4.32;;
14052;SDS011;7101;51.600;7.310;2023-04-01T12:19:51;7.50;;;6.00;;
14052;SDS011;7101;51.600;7.310;2023-04-01T12:22:32;6.78;;;6.07;;
14052;SDS011;7101;51.600;7.310;2023-04-01T12:25:18;9.02;;;7.05;;
14052;SDS011;7101;51.600;7.310;2023-04-01T12:27:57;7.28;;;6.47;;
14052;SDS011;7101;51.600;7.310;2023-04-01T12:30:37;6.80;;;6.13;;
14052;SDS011;7101;51.600;7.310;2023-04-01T12:36:31;9.45;;;6.20;;
14052;SDS011;7101;51.600;7.310;2023-04-01T12:39:17;7.65;;;5.97;;
14052;SDS011;7101;51.600;7.310;2023-04-01T12:41:58;6.38;;;5.70;;
14052;SDS011;7101;51.600;7.310;2023-04-01T12:44:36;6.05;;;5.45;;
14052;SDS011;7101;51.600;7.310;2023-04-01T12:47:24;5.47;;;4.82;;
14052;SDS011;7101;51.600;7.310;2023-04-01T12:50:23;5.50;;;4.63;;
14052;SDS011;7101;51.600;7.310;2023-04-01T12:53:16;5.03;;;4.40;;
14052;SDS011;7101;51.600;7.310;2023-04-01T12:55:59;4.30;;;3.83;;
14052;SDS011;7101;51.600;7.310;2023-04-01T12:58:50;5.22;;;4.10;;
14052;SDS011;7101;51.600;7.310;2023-04-01T13:04:33;4.90;;;4.35;;
14052;SDS011;7101;51.600;7.310;2023-04-01T13:07:39;4.55;;;4.15;;
14052;SDS011;7101;51.600;7.310;2023-04-01T13:10:35;4.40;;;4.00;;
14052;SDS011;7101;51.600;7.310;2023-04-01T13:13:38;6.05;;;4.45;;
14052;SDS011;7101;51.600;7.310;2023-04-01T13:16:28;4.93;;;4.30;;
14052;SDS011;7101;51.600;7.310;2023-04-01T13:18:58;5.15;;;4.18;;
14052;SDS011;7101;51.600;7.310;2023-04-01T13:21:36;4.88;;;3.75;;
14052;SDS011;7101;51.600;7.310;2023-04-01T13:24:11;6.13;;;4.18;;
14052;SDS011;7101;51.600;7.310;2023-04-01T13:26:50;6.32;;;4.30;;
14052;SDS011;7101;51.600;7.310;2023-04-01T13:29:23;4.32;;;3.55;;
14052;SDS011;7101;51.600;7.310;2023-04-01T13:32:00;4.50;;;3.60;;
14052;SDS011;7101;51.600;7.310;2023-04-01T13:34:44;4.13;;;3.60;;
14052;SDS011;7101;51.600;7.310;2023-04-01T13:37:27;3.75;;;3.28;;
14052;SDS011;7101;51.600;7.310;2023-04-01T13:40:13;4.80;;;4.07;;
14052;SDS011;7101;51.600;7.310;2023-04-01T13:43:02;5.72;;;4.60;;
14052;SDS011;7101;51.600;7.310;2023-04-01T13:45:37;4.43;;;4.03;;
14052;SDS011;7101;51.600;7.310;2023-04-01T13:57:23;4.32;;;3.60;;
14052;SDS011;7101;51.600;7.310;2023-04-01T14:00:13;4.15;;;3.75;;
14052;SDS011;7101;51.600;7.310;2023-04-01T14:02:57;3.75;;;3.33;;
14052;SDS011;7101;51.600;7.310;2023-04-01T14:05:49;4.43;;;3.40;;
14052;SDS011;7101;51.600;7.310;2023-04-01T14:08:26;5.00;;;3.50;;
14052;SDS011;7101;51.600;7.310;2023-04-01T14:11:06;4.55;;;3.80;;
14052;SDS011;7101;51.600;7.310;2023-04-01T14:13:41;5.30;;;3.33;;
14052;SDS011;7101;51.600;7.310;2023-04-01T14:19:27;5.10;;;4.13;;
14052;SDS011;7101;51.600;7.310;2023-04-01T14:22:11;4.40;;;3.67;;
14052;SDS011;7101;51.600;7.310;2023-04-01T14:24:49;4.78;;;3.97;;
14052;SDS011;7101;51.600;7.310;2023-04-01T14:27:51;4.45;;;3.80;;
14052;SDS011;7101;51.600;7.310;2023-04-01T14:30:36;5.68;;;4.30;;
14052;SDS011;7101;51.600;7.310;2023-04-01T14:35:58;5.47;;;4.38;;
14052;SDS011;7101;51.600;7.310;2023-04-01T14:38:47;5.30;;;4.22;;
14052;SDS011;7101;51.600;7.310;2023-04-01T14:41:23;6.85;;;3.95;;
14052;SDS011;7101;51.600;7.310;2023-04-01T14:44:08;4.60;;;4.10;;
14052;SDS011;7101;51.600;7.310;2023-04-01T14:47:06;4.95;;;4.22;;
14052;SDS011;7101;51.600;7.310;2023-04-01T14:49:50;5.82;;;4.35;;
14052;SDS011;7101;51.600;7.310;2023-04-01T14:52:26;5.70;;;4.72;;
14052;SDS011;7101;51.600;7.310;2023-04-01T14:54:57;5.57;;;4.80;;
14052;SDS011;7101;51.600;7.310;2023-04-01T14:57:24;4.97;;;4.47;;
14052;SDS011;7101;51.600;7.310;2023-04-01T14:59:53;6.05;;;5.43;;
14052;SDS011;7101;51.600;7.310;2023-04-01T15:02:33;5.40;;;4.85;;
14052;SDS011;7101;51.600;7.310;2023-04-01T15:05:16;5.50;;;5.00;;
14052;SDS011;7101;51.600;7.310;2023-04-01T15:08:14;6.63;;;5.97;;
14052;SDS011;7101;51.600;7.310;2023-04-01T15:16:50;8.13;;;6.68;;
14052;SDS011;7101;51.600;7.310;2023-04-01T15:19:30;7.32;;;5.95;;
14052;SDS011;7101;51.600;7.310;2023-04-01T15:22:15;6.88;;;5.88;;
14052;SDS011;7101;51.600;7.310;2023-04-01T15:25:01;6.72;;;6.00;;
14052;SDS011;7101;51.600;7.310;2023-04-01T15:27:38;6.88;;;6.18;;
14052;SDS011;7101;51.600;7.310;2023-04-01T15:30:15;7.85;;;6.70;;
14052;SDS011;7101;51.600;7.310;2023-04-01T15:32:52;10.45;;;7.00;;
14052;SDS011;7101;51.600;7.310;2023-04-01T15:35:33;7.85;;;6.90;;
14052;SDS011;7101;51.600;7.310;2023-04-01T15:38:06;8.20;;;7.40;;
14052;SDS011;7101;51.600;7.310;2023-04-01T15:40:49;9.52;;;7.43;;
14052;SDS011;7101;51.600;7.310;2023-04-01T15:43:27;9.25;;;8.10;;
14052;SDS011;7101;51.600;7.310;2023-04-01T15:46:09;12.85;;;10.65;;
14052;SDS011;7101;51.600;7.310;2023-04-01T15:48:48;24.20;;;20.30;;
14052;SDS011;7101;51.600;7.310;2023-04-01T15:51:26;12.98;;;11.43;;
14052;SDS011;7101;51.600;7.310;2023-04-01T15:54:23;12.27;;;10.10;;
14052;SDS011;7101;51.600;7.310;2023-04-01T15:57:25;9.38;;;7.82;;
14052;SDS011;7101;51.600;7.310;2023-04-01T16:03:01;8.35;;;7.10;;
14052;SDS011;7101;51.600;7.310;2023-04-01T16:05:53;9.43;;;7.68;;
14052;SDS011;7101;51.600;7.310;2023-04-01T16:08:40;8.48;;;7.68;;
14052;SDS011;7101;51.600;7.310;2023-04-01T16:11:23;8.18;;;7.38;;
14052;SDS011;7101;51.600;7.310;2023-04-01T16:13:59;8.73;;;7.82;;
14052;SDS011;7101;51.600;7.310;2023-04-01T16:16:41;8.00;;;7.20;;
14052;SDS011;7101;51.600;7.310;2023-04-01T16:19:23;7.88;;;7.07;;
14052;SDS011;7101;51.600;7.310;2023-04-01T16:22:12;9.55;;;6.80;;
14052;SDS011;7101;51.600;7.310;2023-04-01T16:24:44;8.40;;;6.88;;
14052;SDS011;7101;51.600;7.310;2023-04-01T16:27:16;6.97;;;6.10;;
14052;SDS011;7101;51.600;7.310;2023-04-01T16:29:52;7.25;;;6.43;;
14052;SDS011;7101;51.600;7.310;2023-04-01T16:32:29;7.85;;;7.00;;
14052;SDS011;7101;51.600;7.310;2023-04-01T16:38:04;6.15;;;5.22;;
14052;SDS011;7101;51.600;7.310;2023-04-01T16:40:40;5.82;;;5.22;;
14052;SDS011;7101;51.600;7.310;2023-04-01T16:43:13;6.13;;;4.95;;
14052;SDS011;7101;51.600;7.310;2023-04-01T16:45:53;5.30;;;4.80;;
14052;SDS011;7101;51.600;7.310;2023-04-01T16:48:45;5.93;;;4.97;;
14052;SDS011;7101;51.600;7.310;2023-04-01T16:51:23;8.10;;;4.68;;
14052;SDS011;7101;51.600;7.310;2023-04-01T16:53:52;5.30;;;4.43;;
14052;SDS011;7101;51.600;7.310;2023-04-01T16:56:36;4.47;;;4.07;;
14052;SDS011;7101;51.600;7.310;2023-04-01T16:59:07;4.90;;;4.13;;
14052;SDS011;7101;51.600;7.310;2023-04-01T17:01:44;5.57;;;5.07;;
14052;SDS011;7101;51.600;7.310;2023-04-01T17:04:19;4.85;;;4.45;;
14052;SDS011;7101;51.600;7.310;2023-04-01T17:06:55;6.15;;;5.00;;
14052;SDS011;7101;51.600;7.310;2023-04-01T17:12:25;5.90;;;5.00;;
14052;SDS011;7101;51.600;7.310;2023-04-01T17:15:05;5.72;;;5.13;;
14052;SDS011;7101;51.600;7.310;2023-04-01T17:17:45;6.10;;;4.65;;
14052;SDS011;7101;51.600;7.310;2023-04-01T17:20:31;7.25;;;5.18;;
14052;SDS011;7101;51.600;7.310;2023-04-01T17:23:09;5.75;;;5.15;;
14052;SDS011;7101;51.600;7.310;2023-04-01T17:28:34;7.57;;;5.97;;
14052;SDS011;7101;51.600;7.310;2023-04-01T17:31:12;7.50;;;5.47;;
14052;SDS011;7101;51.600;7.310;2023-04-01T17:33:59;6.82;;;5.72;;
14052;SDS011;7101;51.600;7.310;2023-04-01T17:36:47;5.95;;;5.38;;
14052;SDS011;7101;51.600;7.310;2023-04-01T17:39:41;5.57;;;5.03;;
14052;SDS011;7101;51.600;7.310;2023-04-01T17:42:16;5.53;;;5.03;;
14052;SDS011;7101;51.600;7.310;2023-04-01T17:44:58;6.13;;;5.50;;
14052;SDS011;7101;51.600;7.310;2023-04-01T17:47:47;6.78;;;6.00;;
14052;SDS011;7101;51.600;7.310;2023-04-01T17:50:24;7.63;;;6.03;;
14052;SDS011;7101;51.600;7.310;2023-04-01T17:53:03;7.47;;;6.00;;
14052;SDS011;7101;51.600;7.310;2023-04-01T17:55:43;8.43;;;6.25;;
14052;SDS011;7101;51.600;7.310;2023-04-01T17:58:22;7.28;;;6.57;;